This is the latest recevied weather packets stored in our database for station/object KP4DJT. If no packets are shown the sender has not sent any weather packets the latest 10 day(s).
| Time | Temp. | Humidity | Pressure | Rain* | Wind** | Luminosity | Snow |
|---|---|---|---|---|---|---|---|
| 1777834338 | 27.22° C | 23% | 1014.8 hPa | 0 mm | - | 938 W/m² | - |
| 1777831939 | 26.67° C | 30% | 1015.5 hPa | 0 mm | - | 941 W/m² | - |
| 1777831339 | 26.67° C | 31% | 1015.6 hPa | 0 mm | - | 936 W/m² | - |
| 1777830139 | 26.11° C | 32% | 1015.8 hPa | 0 mm | - | 919 W/m² | - |
| 1777824160 | 22.22° C | 42% | 1016.8 hPa | 0 mm | - | 736 W/m² | - |
| 1777823560 | 21.67° C | 43% | 1016.8 hPa | 0 mm | - | 712 W/m² | - |
| 1777821161 | 20° C | 45% | 1016.9 hPa | 0 mm | - | 594 W/m² | - |
| 1777815739 | 16.67° C | 57% | 1017.2 hPa | 0 mm | - | 283 W/m² | - |
| 1777815139 | 16.11° C | 60% | 1017.1 hPa | 0 mm | - | 249 W/m² | - |
| 1777814536 | 15.56° C | 63% | 1017.1 hPa | 0 mm | - | 216 W/m² | - |
| 1777812140 | 13.33° C | 70% | 1017.2 hPa | 0 mm | - | 99 W/m² | - |
| 1777809744 | 12.22° C | 74% | 1016.9 hPa | 0 mm | - | 23 W/m² | - |
| 1777804341 | 12.78° C | 68% | 1017 hPa | 0 mm | - | 0 W/m² | - |
| 1777803766 | 12.78° C | 67% | 1017.2 hPa | 0 mm | - | 0 W/m² | - |
| 1777790538 | 14.44° C | 59% | 1019.2 hPa | 0 mm | - | 0 W/m² | - |
| 1777788739 | 14.44° C | 57% | 1019.4 hPa | 0 mm | - | 0 W/m² | - |
| 1777786939 | 15° C | 57% | 1019.3 hPa | 0 mm | - | 0 W/m² | - |
| 1777785749 | 15° C | 56% | 1019.4 hPa | 0 mm | - | 0 W/m² | - |
| 1777773139 | 20° C | 41% | 1018.2 hPa | 0 mm | - | 0 W/m² | - |
| 1777771339 | 20.56° C | 38% | 1017.8 hPa | 0 mm | - | 2 W/m² | - |
| 1777761159 | 22.22° C | 34% | 1018 hPa | 0 mm | - | 458 W/m² | - |
| 1777756940 | 22.22° C | 37% | 1018.6 hPa | 0 mm | - | 690 W/m² | - |
| 1777753340 | 21.11° C | 39% | 1019.4 hPa | 0 mm | - | 829 W/m² | - |
| 1777749738 | 20.56° C | 40% | 1019.9 hPa | 0 mm | - | 913 W/m² | - |
| 1777749138 | 20.56° C | 41% | 1020 hPa | 0 mm | - | 921 W/m² | - |
* Rain latest hour (hover to see other rain measurements)
** Current wind speed in m/s (hover to see current wind gust speed)